Time;durP1;ratioP1;P1;durP2;ratioP2;P2;SDS_P1;SDS_P2;PMS_P1;PMS_P2;Temp;Humidity;BMP_temperature;BMP_pressure;BME280_temperature;BME280_humidity;BME280_pressure;Samples;Min_cycle;Max_cycle;Signal;HPM_P1;HPM_P2
2021/12/07 00:01:10;;;;;;;16.27;12.02;;;3.20;99.90;;;;;;5120241;27;20452;-82
2021/12/07 00:03:35;;;;;;;17.95;11.25;;;3.20;99.90;;;;;;5119696;27;20039;-82
2021/12/07 00:06:02;;;;;;;18.73;10.75;;;3.20;99.90;;;;;;5139032;27;20062;-82
2021/12/07 00:08:28;;;;;;;14.98;10.93;;;3.10;99.90;;;;;;5133264;27;20688;-83
2021/12/07 00:10:55;;;;;;;17.17;12.68;;;3.10;99.90;;;;;;5113409;27;20490;-82
2021/12/07 00:13:21;;;;;;;19.40;10.85;;;3.10;99.90;;;;;;5142782;27;20046;-82
2021/12/07 00:15:47;;;;;;;16.85;10.23;;;3.10;99.90;;;;;;5142732;27;20799;-82
2021/12/07 00:18:14;;;;;;;18.33;10.88;;;3.10;99.90;;;;;;5130809;27;20058;-82
2021/12/07 00:20:39;;;;;;;17.08;10.77;;;3.00;99.90;;;;;;5124131;27;20106;-81
2021/12/07 00:23:07;;;;;;;17.95;12.07;;;3.00;99.90;;;;;;5142830;27;20051;-81
2021/12/07 00:25:35;;;;;;;17.00;11.00;;;3.00;99.90;;;;;;5121832;27;20054;-81
2021/12/07 00:28:01;;;;;;;22.05;11.55;;;2.90;99.90;;;;;;5111639;27;20851;-82
2021/12/07 00:30:30;;;;;;;15.80;11.07;;;3.00;99.90;;;;;;5142665;27;20047;-82
2021/12/07 00:35:55;;;;;;;17.83;10.65;;;2.90;99.90;;;;;;5063338;27;20058;-85
2021/12/07 00:38:24;;;;;;;16.88;10.48;;;2.90;99.90;;;;;;5142191;27;20826;-83
2021/12/07 00:40:51;;;;;;;19.83;12.95;;;2.80;99.90;;;;;;5131677;27;20043;-83
2021/12/07 00:43:17;;;;;;;16.42;11.20;;;2.80;99.90;;;;;;5140468;27;20089;-82
2021/12/07 00:45:45;;;;;;;16.50;10.70;;;2.90;99.90;;;;;;5123670;27;20133;-83
2021/12/07 00:48:13;;;;;;;18.95;10.48;;;2.90;99.90;;;;;;5142436;27;20062;-83
2021/12/07 00:50:41;;;;;;;13.80;10.25;;;2.80;99.90;;;;;;5142773;27;20054;-83
2021/12/07 00:53:07;;;;;;;16.42;12.27;;;2.80;99.90;;;;;;5141754;27;20054;-82
2021/12/07 00:55:37;;;;;;;16.23;11.93;;;2.70;99.90;;;;;;5124156;27;20054;-82
2021/12/07 00:58:12;;;;;;;21.10;12.27;;;2.80;99.90;;;;;;5143085;27;20405;-82
2021/12/07 01:00:40;;;;;;;19.27;11.45;;;3.70;99.90;;;;;;5126414;27;20050;-83
2021/12/07 01:03:06;;;;;;;17.98;12.07;;;2.90;99.90;;;;;;5133213;27;20158;-83
2021/12/07 01:05:34;;;;;;;16.42;10.80;;;2.60;99.90;;;;;;5124920;27;20138;-83
2021/12/07 01:26:59;;;;;;;13.85;10.88;;;2.40;99.90;;;;;;5146949;27;20045;-82
2021/12/07 01:29:26;;;;;;;18.98;9.70;;;2.30;99.90;;;;;;5154874;27;20046;-83
2021/12/07 01:32:04;;;;;;;17.52;10.20;;;2.40;99.90;;;;;;5130157;27;20874;-83
2021/12/07 01:45:55;;;;;;;11.43;9.05;;;2.20;99.90;;;;;;5127438;27;20050;-83
2021/12/07 02:01:52;;;;;;;14.30;9.30;;;2.30;99.90;;;;;;5145525;27;20077;-83
2021/12/07 02:04:18;;;;;;;14.93;9.25;;;2.20;99.90;;;;;;5122527;27;20557;-82
2021/12/07 02:06:44;;;;;;;10.10;8.98;;;2.30;99.90;;;;;;5082542;27;1012652;-84
2021/12/07 02:09:11;;;;;;;15.55;10.32;;;2.30;99.90;;;;;;5119477;27;20074;-86
2021/12/07 02:11:45;;;;;;;15.20;10.45;;;2.20;99.90;;;;;;5120537;27;20047;-84
2021/12/07 02:14:16;;;;;;;;;;;2.20;99.90;;;;;;5120800;27;20507;-85
2021/12/07 02:16:52;;;;;;;12.20;7.90;;;2.10;99.90;;;;;;5119032;27;19971;-83
2021/12/07 02:19:18;;;;;;;12.25;8.07;;;2.20;99.90;;;;;;5108981;27;20142;-84
2021/12/07 02:21:44;;;;;;;12.30;8.20;;;2.20;99.90;;;;;;5120698;27;20047;-84
2021/12/07 02:24:10;;;;;;;12.70;7.47;;;2.20;99.90;;;;;;5120359;27;20065;-85
2021/12/07 02:26:36;;;;;;;14.23;8.90;;;2.20;99.90;;;;;;5120905;27;20485;-83
2021/12/07 02:29:03;;;;;;;13.50;8.45;;;2.10;99.90;;;;;;5120907;27;20122;-82
2021/12/07 02:31:29;;;;;;;12.43;7.80;;;2.20;99.90;;;;;;5119913;27;20539;-83
2021/12/07 02:33:55;;;;;;;12.02;7.78;;;2.10;99.90;;;;;;5117714;27;20047;-83
2021/12/07 02:36:21;;;;;;;11.15;7.88;;;2.20;99.90;;;;;;5125321;27;20035;-83
2021/12/07 02:38:47;;;;;;;9.38;6.95;;;2.20;99.90;;;;;;5118495;27;20095;-82
2021/12/07 02:41:13;;;;;;;11.85;8.13;;;2.20;99.90;;;;;;5116049;27;20088;-82
2021/12/07 02:43:39;;;;;;;10.98;7.80;;;2.20;99.90;;;;;;5119550;27;20078;-83
2021/12/07 02:46:05;;;;;;;10.60;8.43;;;2.20;99.90;;;;;;5121303;27;20042;-83
2021/12/07 02:48:31;;;;;;;13.55;8.45;;;2.20;99.90;;;;;;5120045;27;20534;-83
2021/12/07 02:50:57;;;;;;;10.68;7.85;;;2.20;99.90;;;;;;5103272;27;20108;-84
2021/12/07 02:53:26;;;;;;;12.02;7.32;;;2.20;99.90;;;;;;5119431;27;20547;-84
2021/12/07 02:55:54;;;;;;;13.75;8.52;;;2.20;99.90;;;;;;5119611;27;20050;-84
2021/12/07 02:58:19;;;;;;;10.60;8.32;;;2.30;99.90;;;;;;5115700;27;20392;-84
2021/12/07 03:00:55;;;;;;;11.98;7.53;;;2.30;99.90;;;;;;5119971;27;20046;-85
2021/12/07 03:03:21;;;;;;;11.00;8.18;;;2.30;99.90;;;;;;5118692;27;20039;-84
2021/12/07 03:06:06;;;;;;;12.38;7.80;;;2.20;99.90;;;;;;5117413;27;20140;-85
2021/12/07 03:27:47;;;;;;;11.40;8.80;;;2.30;99.90;;;;;;5117417;27;20050;-82
2021/12/07 03:30:13;;;;;;;14.80;9.23;;;2.30;99.90;;;;;;5119475;27;20724;-83
2021/12/07 03:32:38;;;;;;;15.32;9.30;;;2.20;99.90;;;;;;5117018;27;20082;-83
2021/12/07 03:35:04;;;;;;;11.77;8.65;;;2.30;99.90;;;;;;5121511;27;20038;-82
2021/12/07 03:37:30;;;;;;;12.95;9.93;;;2.30;99.90;;;;;;5124294;27;20120;-83
2021/12/07 03:39:55;;;;;;;13.95;9.10;;;2.30;99.90;;;;;;5102944;27;20054;-83
2021/12/07 03:42:21;;;;;;;15.32;10.68;;;2.30;99.90;;;;;;5118738;27;20047;-84
2021/12/07 03:44:46;;;;;;;13.40;9.68;;;2.30;99.90;;;;;;5119243;27;20054;-84
2021/12/07 03:47:12;;;;;;;11.05;9.18;;;2.30;99.90;;;;;;5126273;27;20046;-84
2021/12/07 03:49:37;;;;;;;12.93;8.57;;;2.30;99.90;;;;;;5131739;27;20047;-84
2021/12/07 03:52:03;;;;;;;12.63;8.88;;;2.30;99.90;;;;;;5130429;27;20035;-84
2021/12/07 03:54:29;;;;;;;14.30;9.95;;;2.20;99.90;;;;;;5120099;27;20051;-85
2021/12/07 03:56:55;;;;;;;15.73;10.18;;;2.20;99.90;;;;;;5119517;27;20043;-83
2021/12/07 03:59:20;;;;;;;13.43;10.13;;;2.20;99.90;;;;;;5107075;27;20044;-85
2021/12/07 04:01:46;;;;;;;12.98;10.05;;;2.20;99.90;;;;;;5114103;27;20956;-84
2021/12/07 04:04:12;;;;;;;16.40;9.27;;;2.30;99.90;;;;;;5117606;27;20043;-83
2021/12/07 04:06:38;;;;;;;13.45;10.23;;;2.20;99.90;;;;;;5100864;28;20069;-83
2021/12/07 04:09:04;;;;;;;15.43;9.15;;;2.30;99.90;;;;;;5111882;28;20130;-83
2021/12/07 04:11:30;;;;;;;13.88;9.45;;;2.30;99.90;;;;;;5109504;28;20105;-83
2021/12/07 04:13:55;;;;;;;13.65;10.02;;;2.20;99.90;;;;;;5117074;27;20767;-82
2021/12/07 04:16:21;;;;;;;17.40;9.30;;;2.30;99.90;;;;;;5117780;28;20398;-83
2021/12/07 04:18:47;;;;;;;12.45;8.90;;;2.20;99.90;;;;;;5118786;28;20035;-82
2021/12/07 04:21:13;;;;;;;16.45;10.50;;;2.20;99.90;;;;;;5118377;28;20611;-82
2021/12/07 04:23:38;;;;;;;13.25;8.85;;;2.20;99.90;;;;;;5118265;28;20524;-82
2021/12/07 04:26:08;;;;;;;14.57;9.23;;;2.20;99.90;;;;;;5117992;28;20134;-82
2021/12/07 04:28:34;;;;;;;14.45;9.57;;;2.10;99.90;;;;;;5117784;28;20058;-82
2021/12/07 04:31:00;;;;;;;11.50;7.80;;;2.20;99.90;;;;;;5118197;28;20087;-82
2021/12/07 04:33:29;;;;;;;15.07;9.77;;;2.20;99.90;;;;;;5114930;27;20127;-80
2021/12/07 04:36:08;;;;;;;10.93;8.18;;;2.10;99.90;;;;;;5098279;28;20159;-85
2021/12/07 04:38:35;;;;;;;17.13;8.55;;;2.10;99.90;;;;;;5117549;28;20676;-83
2021/12/07 04:41:00;;;;;;;12.38;7.60;;;2.10;99.90;;;;;;5119356;28;20892;-83
2021/12/07 04:43:27;;;;;;;14.45;8.90;;;2.10;99.90;;;;;;5119929;28;20047;-83
2021/12/07 04:48:58;;;;;;;11.20;7.97;;;2.00;99.90;;;;;;5119989;28;20086;-81
2021/12/07 04:59:36;;;;;;;10.82;7.32;;;2.00;99.90;;;;;;5119026;27;20581;-80
2021/12/07 05:02:02;;;;;;;11.57;8.77;;;2.00;99.90;;;;;;5123363;27;20401;-81
2021/12/07 05:04:31;;;;;;;8.98;8.07;;;2.00;99.90;;;;;;5122357;27;20046;-81
2021/12/07 05:07:06;;;;;;;10.98;7.93;;;2.00;99.90;;;;;;5140350;27;20063;-80
2021/12/07 05:09:53;;;;;;;11.38;7.78;;;2.00;99.90;;;;;;5139913;27;20054;-80
2021/12/07 05:12:25;;;;;;;11.45;7.95;;;2.00;99.90;;;;;;5116108;27;20057;-80
2021/12/07 05:14:59;;;;;;;14.85;8.43;;;2.00;99.90;;;;;;5121539;27;20050;-79
2021/12/07 05:17:56;;;;;;;14.05;8.15;;;2.10;99.90;;;;;;5143175;27;20118;-80
2021/12/07 05:39:27;;;;;;;10.75;6.70;;;2.00;99.90;;;;;;5131097;27;20053;-80
2021/12/07 05:41:53;;;;;;;14.80;7.43;;;2.00;99.90;;;;;;5142114;27;20490;-79
2021/12/07 05:44:19;;;;;;;8.70;6.28;;;2.00;99.90;;;;;;5143350;27;20750;-79
2021/12/07 05:46:45;;;;;;;10.40;7.40;;;2.00;99.90;;;;;;5142449;27;20071;-80
2021/12/07 05:49:11;;;;;;;10.38;6.32;;;2.00;99.90;;;;;;5140744;27;20086;-79
2021/12/07 05:51:36;;;;;;;11.32;6.53;;;2.00;99.90;;;;;;5143136;27;20042;-79
2021/12/07 05:54:02;;;;;;;11.10;6.55;;;2.00;99.90;;;;;;5141330;27;20483;-79
2021/12/07 05:56:28;;;;;;;10.10;5.53;;;2.10;99.90;;;;;;5134850;27;20830;-79
2021/12/07 05:58:53;;;;;;;9.82;5.57;;;2.10;99.90;;;;;;5124017;27;20568;-79
2021/12/07 06:01:19;;;;;;;13.43;6.13;;;2.10;99.90;;;;;;5141061;27;20074;-79
2021/12/07 06:03:44;;;;;;;8.93;6.40;;;2.10;99.90;;;;;;5123124;27;20041;-79
2021/12/07 06:06:10;;;;;;;10.45;7.50;;;2.10;99.90;;;;;;5141074;27;20059;-79
2021/12/07 06:08:35;;;;;;;10.32;6.97;;;2.10;99.90;;;;;;5141553;27;20053;-78
2021/12/07 06:11:01;;;;;;;7.10;5.70;;;2.10;99.90;;;;;;5108970;27;20096;-79
2021/12/07 06:13:27;;;;;;;9.90;7.05;;;2.20;99.90;;;;;;5123499;27;20058;-79
2021/12/07 06:15:53;;;;;;;10.05;6.30;;;2.20;99.90;;;;;;5142428;27;20057;-78
2021/12/07 06:18:18;;;;;;;7.70;5.63;;;2.30;99.90;;;;;;5123074;27;20122;-79
2021/12/07 06:20:44;;;;;;;9.27;6.38;;;2.30;99.90;;;;;;5142679;27;20044;-78
2021/12/07 06:23:13;;;;;;;10.68;7.35;;;2.20;99.90;;;;;;5111188;27;20474;-79
2021/12/07 06:25:38;;;;;;;10.10;6.18;;;2.20;99.90;;;;;;5121119;27;20831;-79
2021/12/07 06:28:04;;;;;;;7.45;6.57;;;2.20;99.90;;;;;;5141949;27;20051;-78
2021/12/07 06:30:30;;;;;;;9.45;5.63;;;2.20;99.90;;;;;;5141585;27;20074;-79
2021/12/07 06:32:56;;;;;;;10.32;5.47;;;2.10;99.90;;;;;;5142306;27;20121;-78
2021/12/07 06:35:21;;;;;;;12.35;5.28;;;2.10;99.90;;;;;;5117897;27;20819;-78
2021/12/07 06:37:47;;;;;;;9.60;5.82;;;2.20;99.90;;;;;;5139633;27;20121;-79
2021/12/07 06:40:12;;;;;;;10.05;6.10;;;2.10;99.90;;;;;;5123332;27;20130;-78
2021/12/07 06:42:41;;;;;;;9.10;5.40;;;2.10;99.90;;;;;;5141277;27;20125;-78
2021/12/07 06:45:09;;;;;;;11.23;6.20;;;2.10;99.90;;;;;;5141065;27;20193;-78
2021/12/07 06:47:35;;;;;;;8.35;5.13;;;2.10;99.90;;;;;;5141003;27;20516;-79
2021/12/07 06:50:07;;;;;;;8.07;6.53;;;2.10;99.90;;;;;;5122402;27;20576;-78
2021/12/07 06:52:33;;;;;;;7.70;5.40;;;2.10;99.90;;;;;;5121928;27;20153;-79
2021/12/07 06:54:58;;;;;;;10.40;5.57;;;2.10;99.90;;;;;;5141469;27;20344;-78
2021/12/07 06:57:25;;;;;;;11.50;6.30;;;2.10;99.90;;;;;;5119306;27;20043;-78
2021/12/07 06:59:51;;;;;;;8.80;5.38;;;2.10;99.90;;;;;;5119559;27;20102;-78
2021/12/07 07:02:17;;;;;;;8.77;5.90;;;2.10;99.90;;;;;;5130770;27;20038;-78
2021/12/07 07:04:44;;;;;;;7.22;5.00;;;2.10;99.90;;;;;;5136944;27;20108;-78
2021/12/07 07:07:10;;;;;;;7.95;4.63;;;2.10;99.90;;;;;;5136638;27;20051;-79
2021/12/07 07:09:36;;;;;;;10.93;6.05;;;2.10;99.90;;;;;;5137782;27;20780;-79
2021/12/07 07:12:01;;;;;;;7.82;5.53;;;2.10;99.90;;;;;;5137662;27;20073;-79
2021/12/07 07:14:27;;;;;;;7.28;5.03;;;2.10;99.90;;;;;;5138605;27;20099;-79
2021/12/07 07:16:52;;;;;;;9.68;5.25;;;2.10;99.90;;;;;;5119768;27;20382;-78
2021/12/07 07:19:18;;;;;;;7.03;5.10;;;2.10;99.90;;;;;;5119863;27;20053;-78
2021/12/07 07:21:43;;;;;;;8.65;6.40;;;2.10;99.90;;;;;;5119608;27;20035;-78
2021/12/07 07:24:09;;;;;;;9.55;5.35;;;2.10;99.90;;;;;;5119798;27;20079;-80
2021/12/07 07:26:35;;;;;;;10.15;5.90;;;2.10;99.90;;;;;;5137709;27;20054;-79
2021/12/07 07:29:00;;;;;;;10.65;6.53;;;2.10;99.90;;;;;;5138126;27;20042;-78
2021/12/07 07:31:26;;;;;;;8.18;5.47;;;2.10;99.90;;;;;;5137318;27;20053;-79
2021/12/07 07:33:53;;;;;;;9.32;6.70;;;2.20;99.90;;;;;;5118203;27;20137;-77
2021/12/07 07:36:19;;;;;;;10.30;6.18;;;2.20;99.90;;;;;;5145759;27;20065;-77
2021/12/07 07:38:45;;;;;;;8.45;5.93;;;2.20;99.90;;;;;;5119538;27;20811;-77
2021/12/07 07:41:10;;;;;;;9.60;6.63;;;2.20;99.90;;;;;;5136309;27;20054;-78
2021/12/07 07:43:36;;;;;;;9.70;6.13;;;2.20;99.90;;;;;;5118630;27;20756;-78
2021/12/07 07:46:02;;;;;;;21.10;8.60;;;2.20;99.90;;;;;;5136619;27;20038;-77
2021/12/07 07:48:27;;;;;;;8.05;5.40;;;2.30;99.90;;;;;;5118477;27;20054;-77
2021/12/07 07:50:53;;;;;;;5.97;5.20;;;2.30;99.90;;;;;;5126942;27;20047;-76
2021/12/07 07:53:20;;;;;;;9.38;5.13;;;2.30;99.90;;;;;;5134215;27;20845;-77
2021/12/07 07:55:46;;;;;;;8.82;5.82;;;2.30;99.90;;;;;;5140253;27;20203;-77
2021/12/07 07:58:12;;;;;;;8.63;5.10;;;2.30;99.90;;;;;;5136864;27;20046;-78
2021/12/07 08:00:39;;;;;;;8.70;5.60;;;2.30;99.90;;;;;;5136626;27;20106;-77
2021/12/07 08:03:05;;;;;;;8.95;5.78;;;2.30;99.90;;;;;;5112877;27;20115;-77
2021/12/07 08:05:31;;;;;;;14.30;6.97;;;2.30;99.90;;;;;;5136101;27;20850;-77
2021/12/07 08:07:56;;;;;;;9.32;5.60;;;2.30;99.90;;;;;;5118743;27;20086;-76
2021/12/07 08:10:28;;;;;;;7.97;5.13;;;2.30;99.90;;;;;;5118430;27;20053;-77
2021/12/07 08:12:54;;;;;;;10.43;4.80;;;2.30;99.90;;;;;;5137506;27;20049;-76
2021/12/07 08:15:20;;;;;;;10.68;5.93;;;2.30;99.90;;;;;;5118516;27;20063;-75
2021/12/07 08:17:46;;;;;;;11.18;5.40;;;2.40;99.90;;;;;;5124081;27;20051;-75
2021/12/07 08:20:12;;;;;;;11.45;6.25;;;2.40;99.90;;;;;;5118836;27;20059;-75
2021/12/07 08:22:37;;;;;;;12.02;6.00;;;2.40;99.90;;;;;;5108561;27;20125;-73
2021/12/07 08:25:03;;;;;;;11.07;6.03;;;2.40;99.90;;;;;;5118245;27;20038;-75
2021/12/07 08:27:29;;;;;;;9.02;4.95;;;2.40;99.90;;;;;;5136793;27;20051;-74
2021/12/07 08:29:55;;;;;;;10.20;6.60;;;2.40;99.90;;;;;;5137127;27;20075;-75
2021/12/07 08:32:20;;;;;;;8.00;5.10;;;2.40;99.90;;;;;;5140023;27;20043;-74
2021/12/07 08:34:46;;;;;;;7.80;4.97;;;2.40;99.90;;;;;;5110442;27;20052;-75
2021/12/07 08:37:12;;;;;;;6.65;4.85;;;2.40;99.90;;;;;;5151401;27;20070;-74
2021/12/07 08:39:37;;;;;;;11.70;5.88;;;2.50;99.90;;;;;;5123585;27;20080;-74
2021/12/07 08:42:04;;;;;;;9.23;5.20;;;2.50;99.90;;;;;;5115376;27;20084;-75
2021/12/07 08:44:31;;;;;;;7.03;5.15;;;2.50;99.90;;;;;;5137401;27;20043;-75
2021/12/07 08:46:56;;;;;;;8.07;5.20;;;2.60;99.90;;;;;;5144898;27;20047;-75
2021/12/07 08:49:22;;;;;;;8.13;5.05;;;2.60;99.90;;;;;;5144093;27;20046;-75
2021/12/07 08:51:49;;;;;;;12.93;6.05;;;2.60;99.90;;;;;;5142737;27;20050;-75
2021/12/07 08:54:27;;;;;;;9.60;5.47;;;2.70;99.90;;;;;;5144473;27;20047;-75
2021/12/07 09:02:03;;;;;;;10.13;6.05;;;2.70;99.90;;;;;;5127421;27;20058;-74
2021/12/07 09:04:29;;;;;;;11.52;5.10;;;2.80;99.90;;;;;;5120011;27;20641;-71
2021/12/07 09:06:55;;;;;;;8.15;4.88;;;2.80;99.90;;;;;;5137658;27;20176;-76
2021/12/07 09:09:20;;;;;;;9.07;4.93;;;2.80;99.90;;;;;;5143866;27;20043;-77
2021/12/07 09:11:47;;;;;;;8.18;4.95;;;2.80;99.90;;;;;;5143855;27;20110;-76
2021/12/07 09:14:15;;;;;;;9.52;5.32;;;2.90;99.90;;;;;;5125013;27;20062;-75
2021/12/07 09:16:41;;;;;;;14.45;6.10;;;3.00;99.90;;;;;;5143488;27;20149;-76
2021/12/07 09:19:07;;;;;;;8.95;5.20;;;3.00;99.90;;;;;;5142409;27;20049;-76
2021/12/07 09:21:34;;;;;;;11.80;5.18;;;3.00;99.90;;;;;;5143407;27;20078;-76
2021/12/07 09:24:00;;;;;;;11.40;6.40;;;3.10;99.90;;;;;;5124314;27;20140;-76
2021/12/07 09:26:26;;;;;;;10.73;5.60;;;3.10;99.90;;;;;;5142894;27;20050;-76
2021/12/07 09:28:52;;;;;;;12.43;6.07;;;3.10;99.90;;;;;;5124502;27;20061;-76
2021/12/07 09:31:17;;;;;;;21.05;6.38;;;3.10;99.90;;;;;;5143127;27;20046;-75
2021/12/07 09:33:43;;;;;;;12.05;5.95;;;3.20;99.90;;;;;;5142669;27;20539;-75
2021/12/07 09:36:11;;;;;;;11.23;5.97;;;3.20;99.90;;;;;;5154928;27;20150;-76
2021/12/07 09:38:38;;;;;;;9.65;6.50;;;3.30;99.90;;;;;;5163844;27;20727;-76
2021/12/07 09:41:05;;;;;;;14.25;6.10;;;3.30;99.90;;;;;;5162816;27;20061;-76
2021/12/07 09:43:32;;;;;;;12.05;5.93;;;3.30;99.90;;;;;;5163004;27;20046;-76
2021/12/07 09:45:58;;;;;;;15.55;5.63;;;3.40;99.90;;;;;;5162840;27;20109;-77
2021/12/07 09:48:25;;;;;;;11.10;5.95;;;3.40;99.90;;;;;;5134621;27;20123;-76
2021/12/07 09:50:51;;;;;;;11.05;6.63;;;3.50;99.90;;;;;;5121403;27;20050;-77
2021/12/07 09:53:18;;;;;;;8.98;5.15;;;3.50;99.90;;;;;;5102295;27;20043;-77
2021/12/07 09:55:46;;;;;;;13.70;5.50;;;3.50;99.90;;;;;;5149075;27;20054;-77
2021/12/07 09:58:12;;;;;;;11.07;5.68;;;3.50;99.90;;;;;;5164445;27;20095;-77
2021/12/07 10:00:38;;;;;;;13.18;5.75;;;3.60;99.90;;;;;;5163545;27;20077;-78
2021/12/07 10:03:04;;;;;;;13.57;5.13;;;3.60;99.90;;;;;;5127522;27;20835;-78
2021/12/07 10:05:31;;;;;;;12.60;6.38;;;3.60;99.90;;;;;;5126219;27;20066;-78
2021/12/07 10:07:58;;;;;;;10.30;5.93;;;3.70;99.90;;;;;;5141835;27;20049;-78
2021/12/07 10:10:26;;;;;;;12.55;6.63;;;3.80;99.90;;;;;;5142576;27;20050;-79
2021/12/07 10:12:51;;;;;;;11.85;5.93;;;3.80;99.90;;;;;;5124132;27;20071;-79
2021/12/07 10:15:18;;;;;;;6.80;5.40;;;3.80;99.90;;;;;;5142178;27;20039;-79
2021/12/07 10:17:59;;;;;;;11.75;5.40;;;3.80;99.90;;;;;;5142951;27;20050;-79
2021/12/07 10:20:43;;;;;;;8.10;5.68;;;4.00;99.90;;;;;;5143309;27;20042;-79
2021/12/07 10:23:15;;;;;;;;;;;4.20;99.90;;;;;;5142226;27;20074;-78
2021/12/07 10:25:44;;;;;;;8.88;4.88;;;4.40;99.90;;;;;;5142650;27;20013;-79
2021/12/07 10:28:29;;;;;;;8.25;5.15;;;4.50;99.90;;;;;;5141938;27;20046;-78
2021/12/07 10:31:00;;;;;;;8.15;5.32;;;4.60;99.90;;;;;;5142638;27;20050;-77
2021/12/07 10:33:36;;;;;;;11.68;4.95;;;4.60;99.90;;;;;;5142773;27;20050;-78
2021/12/07 10:36:14;;;;;;;9.93;4.88;;;4.60;99.90;;;;;;5153091;27;20071;-78
2021/12/07 10:38:42;;;;;;;7.88;4.75;;;4.60;99.90;;;;;;5143732;27;20095;-78
2021/12/07 10:41:11;;;;;;;8.32;4.32;;;4.60;99.90;;;;;;5143720;27;20125;-78
2021/12/07 10:43:44;;;;;;;10.15;4.82;;;4.60;99.90;;;;;;5162363;27;20065;-78
2021/12/07 10:46:28;;;;;;;8.93;5.10;;;4.70;99.90;;;;;;5143979;27;20070;-78
2021/12/07 10:49:22;;;;;;;9.02;4.15;;;5.20;99.90;;;;;;5126071;27;20050;-77
2021/12/07 10:51:58;;;;;;;6.05;4.03;;;4.70;99.90;;;;;;5121276;27;20202;-77
2021/12/07 10:54:25;;;;;;;5.72;3.75;;;4.80;99.90;;;;;;5106898;27;20508;-77
2021/12/07 10:56:51;;;;;;;11.88;4.47;;;4.80;99.90;;;;;;5161969;27;20069;-77
2021/12/07 10:59:17;;;;;;;11.38;4.55;;;4.80;99.90;;;;;;5143743;27;20150;-76
2021/12/07 11:01:48;;;;;;;11.68;4.82;;;4.80;99.90;;;;;;5149977;27;20046;-77
2021/12/07 11:04:23;;;;;;;6.32;4.10;;;4.80;99.90;;;;;;5157196;27;20057;-76
2021/12/07 11:07:09;;;;;;;10.70;4.68;;;4.90;99.90;;;;;;5130828;27;20050;-76
2021/12/07 11:09:43;;;;;;;6.38;4.05;;;4.90;99.90;;;;;;5102641;27;20841;-76
2021/12/07 11:12:11;;;;;;;7.82;3.75;;;5.00;99.90;;;;;;5120351;27;20077;-76
2021/12/07 11:14:48;;;;;;;6.75;4.70;;;5.00;99.90;;;;;;5102235;27;20054;-76
2021/12/07 11:17:33;;;;;;;13.98;5.07;;;5.10;99.90;;;;;;5102319;27;20096;-76
2021/12/07 11:20:02;;;;;;;9.18;4.72;;;5.10;99.90;;;;;;5120584;27;20042;-76
2021/12/07 11:22:31;;;;;;;7.20;4.25;;;5.10;99.90;;;;;;5120735;27;20051;-76
2021/12/07 11:25:00;;;;;;;7.47;4.50;;;5.20;99.90;;;;;;5101596;27;20083;-75
2021/12/07 11:30:14;;;;;;;5.75;3.55;;;5.30;99.90;;;;;;5120742;27;20055;-75
2021/12/07 11:32:44;;;;;;;7.03;4.53;;;5.30;99.90;;;;;;5120179;27;20050;-75
2021/12/07 11:35:20;;;;;;;10.75;5.72;;;5.40;99.90;;;;;;5128008;27;20057;-75
2021/12/07 11:37:47;;;;;;;10.98;5.40;;;5.40;99.90;;;;;;5143989;27;20465;-75
2021/12/07 11:40:17;;;;;;;9.77;4.97;;;5.40;99.90;;;;;;5161530;27;20057;-75
2021/12/07 11:42:43;;;;;;;7.82;3.92;;;5.40;99.90;;;;;;5162490;27;20475;-75
2021/12/07 11:45:28;;;;;;;6.47;4.75;;;5.50;99.90;;;;;;5143005;27;20081;-75
2021/12/07 11:48:02;;;;;;;11.95;5.57;;;5.50;99.90;;;;;;5141533;27;20065;-75
2021/12/07 11:50:35;;;;;;;7.25;4.10;;;5.60;99.90;;;;;;5120428;27;21000;-75
2021/12/07 11:53:07;;;;;;;8.70;3.90;;;5.60;99.90;;;;;;5119449;27;20058;-76
2021/12/07 11:55:36;;;;;;;10.05;4.40;;;5.60;99.90;;;;;;5125149;27;20050;-76
2021/12/07 11:58:03;;;;;;;10.35;4.82;;;5.70;99.90;;;;;;5161114;27;20497;-75
2021/12/07 12:00:45;;;;;;;6.32;3.63;;;5.70;99.90;;;;;;5159280;27;20053;-74
2021/12/07 12:03:14;;;;;;;5.30;3.65;;;5.70;99.90;;;;;;5122261;27;20050;-75
2021/12/07 12:05:43;;;;;;;9.02;3.95;;;5.80;99.90;;;;;;5126434;27;20127;-74
2021/12/07 12:08:13;;;;;;;7.18;4.13;;;5.80;99.90;;;;;;5142861;27;20049;-74
2021/12/07 12:10:43;;;;;;;9.63;4.32;;;5.80;99.90;;;;;;5123907;27;20129;-71
2021/12/07 12:13:22;;;;;;;6.40;4.03;;;5.90;99.90;;;;;;5141937;27;20054;-74
2021/12/07 12:16:02;;;;;;;4.78;3.92;;;5.90;99.90;;;;;;5144412;27;20070;-75
2021/12/07 12:18:58;;;;;;;7.88;3.88;;;5.90;99.90;;;;;;5144214;27;20078;-75
2021/12/07 12:21:33;;;;;;;13.30;4.18;;;6.00;99.90;;;;;;5124825;27;20231;-75
2021/12/07 12:24:19;;;;;;;9.68;3.65;;;6.00;99.90;;;;;;5143410;27;20042;-75
2021/12/07 12:26:47;;;;;;;8.60;4.72;;;6.00;99.90;;;;;;5143459;27;20134;-76
2021/12/07 12:29:23;;;;;;;10.23;4.30;;;6.10;99.90;;;;;;5125315;27;20050;-75
2021/12/07 12:31:55;;;;;;;9.82;3.75;;;6.10;99.90;;;;;;5144002;27;20122;-75
2021/12/07 12:34:28;;;;;;;4.40;3.28;;;6.10;99.90;;;;;;5143817;27;20090;-75
2021/12/07 12:37:10;;;;;;;8.57;4.10;;;6.10;99.90;;;;;;5143041;27;20046;-75
2021/12/07 12:39:43;;;;;;;6.60;4.63;;;6.10;99.90;;;;;;5145697;27;20814;-75
2021/12/07 12:42:09;;;;;;;8.93;4.70;;;6.10;99.90;;;;;;5163374;27;20038;-75
2021/12/07 12:44:37;;;;;;;5.88;3.38;;;6.10;99.90;;;;;;5164078;27;20053;-68
2021/12/07 12:47:05;;;;;;;9.25;4.30;;;6.10;99.90;;;;;;5163453;27;20038;-75
2021/12/07 12:49:42;;;;;;;8.00;3.10;;;6.00;99.90;;;;;;5134945;27;20039;-74
2021/12/07 12:52:09;;;;;;;10.23;4.25;;;6.00;99.90;;;;;;5103959;27;20142;-73
2021/12/07 12:54:44;;;;;;;10.80;3.83;;;6.00;99.90;;;;;;5143055;27;20046;-74
2021/12/07 12:57:15;;;;;;;13.00;4.28;;;6.00;99.90;;;;;;5139350;27;20047;-74
2021/12/07 12:59:44;;;;;;;7.13;3.50;;;6.00;99.90;;;;;;5140554;27;20878;-74
2021/12/07 13:02:11;;;;;;;5.88;3.13;;;6.00;99.90;;;;;;5139905;27;20076;-73
2021/12/07 13:04:37;;;;;;;8.07;4.32;;;6.00;99.90;;;;;;5139471;27;20057;-75
2021/12/07 13:07:27;;;;;;;7.18;3.60;;;6.00;99.90;;;;;;5140184;27;20051;-74
2021/12/07 13:09:58;;;;;;;9.30;4.25;;;6.10;99.90;;;;;;5136736;27;20539;-74
2021/12/07 13:12:27;;;;;;;9.53;4.50;;;6.10;99.90;;;;;;5142702;27;20046;-74
2021/12/07 13:14:52;;;;;;;9.85;5.03;;;6.10;99.90;;;;;;5123245;27;20320;-74
2021/12/07 13:17:20;;;;;;;13.38;4.13;;;6.10;99.90;;;;;;5121685;27;20117;-74
2021/12/07 13:20:07;;;;;;;12.52;5.03;;;6.10;99.90;;;;;;5142678;27;20053;-74
2021/12/07 13:22:43;;;;;;;5.15;4.63;;;6.10;99.90;;;;;;5124734;27;20038;-74
2021/12/07 13:25:30;;;;;;;7.55;3.45;;;6.10;99.90;;;;;;5117912;27;20074;-74
2021/12/07 13:28:15;;;;;;;6.65;4.15;;;6.10;99.90;;;;;;5134587;27;20034;-74
2021/12/07 13:30:53;;;;;;;7.03;3.72;;;6.10;99.90;;;;;;5105905;27;20084;-74
2021/12/07 13:33:38;;;;;;;8.75;3.88;;;6.10;99.90;;;;;;5139502;27;20160;-75
2021/12/07 13:36:41;;;;;;;8.05;4.32;;;6.10;99.90;;;;;;5151501;27;20054;-75
2021/12/07 13:39:10;;;;;;;8.07;4.15;;;6.10;99.90;;;;;;5160680;27;20081;-75
2021/12/07 13:41:46;;;;;;;14.65;4.38;;;6.10;99.90;;;;;;5142043;27;20054;-74
2021/12/07 13:44:12;;;;;;;7.18;3.92;;;6.10;99.90;;;;;;5142053;27;20613;-74
2021/12/07 13:46:38;;;;;;;7.57;3.65;;;6.10;99.90;;;;;;5141957;27;20046;-75
2021/12/07 13:49:07;;;;;;;9.55;4.78;;;6.10;99.90;;;;;;5140386;27;20454;-74
2021/12/07 13:51:33;;;;;;;9.18;4.50;;;6.00;99.90;;;;;;5100300;27;20047;-75
2021/12/07 13:54:00;;;;;;;8.80;4.43;;;6.00;99.90;;;;;;5117562;27;20039;-75
2021/12/07 13:56:31;;;;;;;12.93;5.43;;;6.00;99.90;;;;;;5157523;27;20032;-74
2021/12/07 13:59:10;;;;;;;8.98;5.30;;;6.00;99.90;;;;;;5159065;27;20961;-75
2021/12/07 14:01:39;;;;;;;9.18;4.40;;;6.00;99.90;;;;;;5135239;27;20125;-74
2021/12/07 14:04:07;;;;;;;7.55;4.40;;;5.90;99.90;;;;;;5121047;27;20097;-74
2021/12/07 14:06:34;;;;;;;7.55;4.10;;;5.90;99.90;;;;;;5116534;27;20070;-75
2021/12/07 14:09:10;;;;;;;7.28;4.32;;;5.90;99.90;;;;;;5119371;27;20043;-75
2021/12/07 14:11:38;;;;;;;12.43;4.00;;;5.80;99.90;;;;;;5117677;27;20556;-75
2021/12/07 14:14:12;;;;;;;7.80;3.92;;;5.80;99.90;;;;;;5117988;27;20054;-74
2021/12/07 14:16:38;;;;;;;11.73;5.85;;;5.70;99.90;;;;;;5119112;27;20603;-74
2021/12/07 14:19:04;;;;;;;9.95;5.00;;;5.70;99.90;;;;;;5118345;27;20043;-74
2021/12/07 14:21:30;;;;;;;6.13;3.60;;;5.60;99.90;;;;;;5118189;27;20054;-74
2021/12/07 14:24:04;;;;;;;6.63;5.10;;;5.60;99.90;;;;;;5116903;27;20150;-74
2021/12/07 14:26:34;;;;;;;6.30;4.30;;;5.60;99.90;;;;;;5116743;27;20082;-74
2021/12/07 14:29:09;;;;;;;8.82;4.50;;;5.50;99.90;;;;;;5114959;27;20043;-75
2021/12/07 14:31:37;;;;;;;15.25;4.95;;;5.50;99.90;;;;;;5117883;27;20047;-75
2021/12/07 14:34:06;;;;;;;10.23;5.03;;;5.40;99.90;;;;;;5117029;27;20047;-75
2021/12/07 14:36:35;;;;;;;8.18;4.00;;;5.40;99.90;;;;;;5132252;27;20046;-75
2021/12/07 14:39:11;;;;;;;7.82;4.63;;;5.40;99.90;;;;;;5137875;27;20116;-76
2021/12/07 14:41:44;;;;;;;7.22;4.53;;;5.30;99.90;;;;;;5136551;27;20827;-75
2021/12/07 14:44:12;;;;;;;;;;;5.30;99.90;;;;;;5118137;27;20063;-75